Time;durP1;ratioP1;P1;durP2;ratioP2;P2;SDS_P1;SDS_P2;PMS_P1;PMS_P2;Temp;Humidity;BMP_temperature;BMP_pressure;BME280_temperature;BME280_humidity;BME280_pressure;Samples;Min_cycle;Max_cycle;Signal;HPM_P1;HPM_P2
2023/12/31 00:01:34;;;;;;;27.85;19.02;;;;;;;7.53;64.11;94933.25;4199114;28;20044;-69
2023/12/31 00:03:35;;;;;;;26.67;18.48;;;;;;;7.64;63.38;94935.75;4208110;28;20259;-68
2023/12/31 00:05:37;;;;;;;26.10;18.27;;;;;;;7.69;63.72;94933.53;4201712;28;20493;-68
2023/12/31 00:07:39;;;;;;;26.98;18.58;;;;;;;7.67;63.26;94939.84;4209782;28;20052;-67
2023/12/31 00:09:41;;;;;;;29.83;18.77;;;;;;;7.65;63.37;94936.56;4209292;28;20059;-69
2023/12/31 00:11:43;;;;;;;25.67;18.65;;;;;;;7.69;63.68;94949.19;4211062;28;20544;-68
2023/12/31 00:13:45;;;;;;;28.83;19.70;;;;;;;7.75;62.79;94943.44;4210211;28;20143;-70
2023/12/31 00:15:47;;;;;;;27.15;18.42;;;;;;;7.76;63.32;94945.06;4207038;28;20417;-68
2023/12/31 00:17:49;;;;;;;28.58;18.80;;;;;;;7.83;63.38;94942.75;4202156;28;20055;-71
2023/12/31 00:19:51;;;;;;;25.65;17.63;;;;;;;7.90;62.66;94940.44;4205565;28;20127;-71
2023/12/31 00:21:53;;;;;;;24.40;17.27;;;;;;;7.88;62.35;94942.34;4210919;28;20128;-70
2023/12/31 00:23:54;;;;;;;25.17;18.10;;;;;;;7.83;62.89;94945.38;4208088;28;20052;-71
2023/12/31 00:25:57;;;;;;;25.88;17.52;;;;;;;7.76;62.67;94949.47;4199524;28;20135;-69
2023/12/31 00:27:59;;;;;;;23.13;16.73;;;;;;;7.66;62.77;94941.66;4200660;28;20103;-70
2023/12/31 00:30:01;;;;;;;27.20;17.13;;;;;;;7.58;63.30;94947.53;4199932;28;20412;-70
2023/12/31 00:32:04;;;;;;;26.85;18.63;;;;;;;7.43;63.34;94948.03;4204456;28;20117;-69
2023/12/31 00:34:08;;;;;;;22.95;17.48;;;;;;;7.04;64.11;94947.94;4208227;28;20390;-71
2023/12/31 00:36:10;;;;;;;28.10;18.75;;;;;;;7.05;65.02;94954.78;4194890;28;20502;-70
2023/12/31 00:38:12;;;;;;;25.13;18.23;;;;;;;6.93;65.18;94951.44;4194791;28;20052;-71
2023/12/31 00:40:14;;;;;;;29.23;18.17;;;;;;;6.95;65.12;94958.16;4194403;28;20753;-70
2023/12/31 00:42:16;;;;;;;25.42;18.42;;;;;;;6.98;65.47;94950.09;4202479;28;20052;-70
2023/12/31 00:44:18;;;;;;;28.35;18.40;;;;;;;7.06;65.35;94959.03;4211704;28;20060;-69
2023/12/31 00:46:20;;;;;;;26.20;17.20;;;;;;;7.18;64.81;94956.22;4208146;28;20066;-68
2023/12/31 00:48:22;;;;;;;24.42;18.05;;;;;;;7.29;64.56;94957.91;4201334;28;20044;-70
2023/12/31 00:50:24;;;;;;;28.10;18.05;;;;;;;7.39;64.09;94950.91;4201197;28;20109;-69
2023/12/31 00:52:26;;;;;;;26.13;17.40;;;;;;;7.47;63.87;94954.66;4195944;28;20185;-71
2023/12/31 00:54:28;;;;;;;25.27;17.67;;;;;;;7.52;64.00;94955.06;4209548;28;20059;-70
2023/12/31 00:56:29;;;;;;;27.20;17.08;;;;;;;7.56;63.32;94956.44;4194374;28;20076;-69
2023/12/31 00:58:31;;;;;;;26.15;16.75;;;;;;;7.64;63.46;94954.00;4196564;28;20047;-70
2023/12/31 01:00:33;;;;;;;26.98;17.23;;;;;;;7.65;62.64;94950.41;4198111;28;20086;-69
2023/12/31 01:02:35;;;;;;;24.95;17.27;;;;;;;7.69;62.89;94954.41;4208694;28;20041;-70
2023/12/31 01:04:37;;;;;;;23.77;15.98;;;;;;;7.77;63.12;94953.75;4202391;28;20422;-69
2023/12/31 01:06:39;;;;;;;20.42;14.57;;;;;;;7.83;62.05;94953.19;4205606;28;20098;-68
2023/12/31 01:08:41;;;;;;;22.30;15.25;;;;;;;7.85;62.71;94943.47;4204151;28;20471;-68
2023/12/31 01:10:43;;;;;;;23.45;16.20;;;;;;;7.89;62.26;94944.81;4204252;28;20056;-70
2023/12/31 01:12:44;;;;;;;21.23;16.00;;;;;;;7.64;61.96;94945.34;4199545;28;20189;-70
2023/12/31 01:14:46;;;;;;;22.13;15.80;;;;;;;7.54;62.83;94942.72;4202834;28;20435;-70
2023/12/31 01:16:48;;;;;;;22.85;16.63;;;;;;;7.53;63.16;94943.69;4207691;28;20535;-70
2023/12/31 01:18:50;;;;;;;25.02;15.40;;;;;;;7.52;63.04;94947.25;4200496;28;20041;-69
2023/12/31 01:20:52;;;;;;;23.27;15.38;;;;;;;7.49;63.45;94937.09;4194269;28;20052;-69
2023/12/31 01:22:54;;;;;;;20.13;15.13;;;;;;;7.50;63.17;94939.53;4205486;28;20048;-71
2023/12/31 01:24:56;;;;;;;22.17;16.00;;;;;;;7.47;63.11;94936.41;4205771;28;20056;-68
2023/12/31 01:26:58;;;;;;;21.95;16.05;;;;;;;7.27;63.33;94941.56;4197819;28;20481;-69
2023/12/31 01:28:59;;;;;;;21.85;15.98;;;;;;;7.32;63.82;94935.94;4203614;28;20091;-69
2023/12/31 01:31:02;;;;;;;22.33;15.57;;;;;;;7.40;63.52;94933.50;4201270;28;20662;-70
2023/12/31 01:33:04;;;;;;;21.77;15.48;;;;;;;7.50;63.70;94933.50;4204033;28;20048;-72
2023/12/31 01:35:06;;;;;;;20.67;15.27;;;;;;;7.64;63.02;94932.31;4198443;28;20052;-70
2023/12/31 01:37:08;;;;;;;20.35;15.43;;;;;;;7.56;62.85;94928.56;4197165;28;20054;-69
2023/12/31 01:39:10;;;;;;;20.13;15.32;;;;;;;7.47;63.17;94925.97;4200296;28;20052;-70
2023/12/31 01:41:12;;;;;;;22.08;15.60;;;;;;;7.49;63.42;94926.66;4203683;28;20056;-71
2023/12/31 01:43:17;;;;;;;26.60;15.15;;;;;;;7.56;63.10;94928.56;4208321;28;20416;-70
2023/12/31 01:45:19;;;;;;;20.50;14.98;;;;;;;7.61;63.64;94930.78;4210115;28;20755;-69
2023/12/31 01:47:21;;;;;;;20.50;14.73;;;;;;;7.70;62.88;94934.34;4200035;28;20692;-69
2023/12/31 01:49:23;;;;;;;22.98;15.77;;;;;;;7.72;62.88;94942.88;4200261;28;20060;-69
2023/12/31 01:51:26;;;;;;;25.88;16.60;;;;;;;7.72;62.70;94942.88;4207098;28;20112;-69
2023/12/31 01:53:29;;;;;;;24.23;15.17;;;;;;;7.75;62.60;94932.19;4201075;28;20510;-71
2023/12/31 01:55:30;;;;;;;24.40;17.80;;;;;;;7.75;62.17;94938.22;4208455;28;20079;-72
2023/12/31 01:57:33;;;;;;;23.98;17.17;;;;;;;7.71;63.10;94936.03;4206113;28;20127;-69
2023/12/31 01:59:35;;;;;;;26.33;18.73;;;;;;;7.68;62.74;94928.44;4205881;28;20048;-70
2023/12/31 02:01:37;;;;;;;25.70;18.10;;;;;;;7.66;62.77;94927.75;4191747;28;20067;-70
2023/12/31 02:03:38;;;;;;;26.85;18.83;;;;;;;7.65;63.36;94929.56;4197361;28;20064;-68
2023/12/31 02:05:40;;;;;;;23.67;18.80;;;;;;;7.70;63.38;94932.59;4201442;28;20048;-69
2023/12/31 02:07:42;;;;;;;29.98;20.00;;;;;;;7.71;62.71;94920.38;4207625;28;20513;-68
2023/12/31 02:09:44;;;;;;;26.02;20.35;;;;;;;7.74;63.35;94926.16;4207843;28;20066;-71
2023/12/31 02:11:47;;;;;;;32.80;21.33;;;;;;;7.72;63.27;94922.00;4194689;28;20045;-70
2023/12/31 02:13:48;;;;;;;25.50;19.73;;;;;;;7.59;63.29;94922.25;4196988;28;20162;-70
2023/12/31 02:15:52;;;;;;;29.17;19.63;;;;;;;7.63;63.80;94913.22;4196736;28;20044;-70
2023/12/31 02:17:53;;;;;;;28.65;20.23;;;;;;;7.67;63.22;94919.81;4206649;28;20055;-70
2023/12/31 02:19:55;;;;;;;28.42;19.95;;;;;;;7.62;63.54;94914.19;4205728;28;20046;-72
2023/12/31 02:21:58;;;;;;;27.38;20.85;;;;;;;7.60;63.69;94910.88;4207974;28;20088;-70
2023/12/31 02:24:00;;;;;;;28.42;19.60;;;;;;;7.57;63.45;94908.53;4209082;28;20389;-70
2023/12/31 02:26:10;;;;;;;26.88;20.05;;;;;;;7.57;63.71;94911.16;4204625;28;20053;-70
2023/12/31 02:28:13;;;;;;;27.73;20.15;;;;;;;7.61;64.22;94906.50;4197044;28;20495;-71
2023/12/31 02:30:15;;;;;;;29.25;20.27;;;;;;;7.60;63.79;94903.06;4203115;28;20536;-69
2023/12/31 02:32:17;;;;;;;28.55;19.75;;;;;;;7.62;63.81;94905.56;4199666;28;20076;-71
2023/12/31 02:34:19;;;;;;;25.17;19.13;;;;;;;7.70;63.45;94900.44;4205167;28;20151;-69
2023/12/31 02:36:22;;;;;;;27.35;20.02;;;;;;;7.71;63.36;94884.69;4207584;28;20052;-70
2023/12/31 02:38:24;;;;;;;29.55;20.23;;;;;;;7.69;63.52;94889.22;4202559;28;20058;-70
2023/12/31 02:40:26;;;;;;;27.73;19.92;;;;;;;7.70;63.25;94892.63;4191891;28;20137;-73
2023/12/31 02:42:27;;;;;;;24.45;19.08;;;;;;;7.65;63.31;94895.66;4205225;28;20390;-71
2023/12/31 02:44:29;;;;;;;25.75;19.63;;;;;;;7.63;63.26;94897.56;4194099;28;20452;-71
2023/12/31 02:46:31;;;;;;;24.63;18.70;;;;;;;7.69;63.47;94898.81;4204800;28;20431;-71
2023/12/31 02:48:33;;;;;;;26.92;19.60;;;;;;;7.69;63.34;94897.03;4199672;28;20078;-71
2023/12/31 02:50:35;;;;;;;27.90;20.48;;;;;;;7.68;63.52;94895.41;4196018;28;20048;-69
2023/12/31 02:52:37;;;;;;;26.67;19.33;;;;;;;7.70;63.10;94900.44;4203280;28;20207;-68
2023/12/31 02:54:39;;;;;;;23.92;18.70;;;;;;;7.76;63.02;94905.94;4207751;28;20056;-69
2023/12/31 02:56:41;;;;;;;28.73;19.48;;;;;;;7.77;63.00;94907.59;4205312;28;20394;-71
2023/12/31 02:58:43;;;;;;;26.42;19.80;;;;;;;7.77;62.94;94899.78;4195178;28;20049;-70
2023/12/31 03:01:00;;;;;;;27.25;19.55;;;;;;;7.78;63.18;94900.59;4205096;28;20056;-72
2023/12/31 03:03:02;;;;;;;27.35;19.90;;;;;;;7.76;62.61;94905.13;4203705;28;20237;-69
2023/12/31 03:05:05;;;;;;;27.25;19.10;;;;;;;7.77;62.83;94901.56;4194376;28;20482;-68
2023/12/31 03:07:07;;;;;;;26.35;19.67;;;;;;;7.75;62.86;94896.50;4204764;28;20051;-70
2023/12/31 03:09:09;;;;;;;26.50;18.60;;;;;;;7.71;62.60;94902.94;4197211;28;20052;-68
2023/12/31 03:11:11;;;;;;;27.42;19.05;;;;;;;7.73;62.97;94903.63;4203609;28;20049;-70
2023/12/31 03:13:13;;;;;;;28.38;19.00;;;;;;;7.71;63.04;94900.31;4196268;28;20050;-70
2023/12/31 03:15:19;;;;;;;26.50;19.33;;;;;;;7.69;62.81;94899.63;4202984;28;20048;-70
2023/12/31 03:17:21;;;;;;;30.17;19.92;;;;;;;7.70;62.62;94903.91;4204868;28;20048;-71
2023/12/31 03:19:22;;;;;;;24.20;18.45;;;;;;;7.66;63.03;94901.69;4199797;28;20513;-70
2023/12/31 03:21:24;;;;;;;24.80;19.77;;;;;;;7.66;63.16;94901.69;4207350;28;20048;-71
2023/12/31 03:23:26;;;;;;;26.75;19.00;;;;;;;7.65;63.16;94894.84;4207545;28;20048;-72
2023/12/31 03:25:28;;;;;;;26.35;18.98;;;;;;;7.58;63.05;94897.97;4198494;28;20077;-70
2023/12/31 03:27:30;;;;;;;27.98;19.85;;;;;;;7.56;63.09;94896.47;4203862;28;20056;-68
2023/12/31 03:29:32;;;;;;;24.42;18.83;;;;;;;7.56;63.37;94897.28;4200286;28;20048;-72
2023/12/31 03:31:34;;;;;;;25.23;18.13;;;;;;;7.57;63.08;94898.09;4201609;28;20087;-71
2023/12/31 03:33:36;;;;;;;27.70;19.45;;;;;;;7.52;62.88;94895.09;4200935;28;20101;-70
2023/12/31 03:35:38;;;;;;;23.33;18.13;;;;;;;7.46;63.70;94887.81;4207091;28;20513;-70
2023/12/31 03:37:46;;;;;;;25.02;18.95;;;;;;;7.33;63.68;94888.88;4207501;28;20098;-70
2023/12/31 03:39:51;;;;;;;27.13;20.10;;;;;;;7.23;63.98;94890.66;4197765;28;20054;-72
2023/12/31 03:41:53;;;;;;;26.35;19.55;;;;;;;7.17;64.55;94892.00;4198238;28;20436;-70
2023/12/31 03:43:55;;;;;;;27.10;18.98;;;;;;;7.10;64.24;94896.13;4194404;28;20063;-69
2023/12/31 03:45:59;;;;;;;29.40;20.60;;;;;;;6.94;64.40;94901.81;4203082;28;20056;-68
2023/12/31 03:48:01;;;;;;;33.60;23.17;;;;;;;6.87;64.77;94892.06;4206607;28;20114;-71
2023/12/31 03:50:03;;;;;;;30.98;22.13;;;;;;;6.82;64.98;94899.44;4202466;28;20196;-71
2023/12/31 03:52:06;;;;;;;27.85;20.80;;;;;;;6.74;65.71;94897.50;4207441;28;20143;-70
2023/12/31 03:54:08;;;;;;;30.13;22.05;;;;;;;6.68;65.79;94891.03;4196745;28;20088;-69
2023/12/31 03:56:10;;;;;;;33.65;22.75;;;;;;;6.54;65.64;94899.19;4202363;28;20467;-69
2023/12/31 03:58:12;;;;;;;33.47;22.17;;;;;;;6.54;66.33;94891.38;4202747;28;20479;-69
2023/12/31 04:00:14;;;;;;;31.17;22.38;;;;;;;6.53;66.14;94903.56;4192590;28;20052;-71
2023/12/31 04:02:17;;;;;;;36.17;24.30;;;;;;;6.37;66.06;94898.00;4204181;28;20071;-70
2023/12/31 04:04:19;;;;;;;33.05;24.42;;;;;;;6.20;66.72;94903.78;4208488;28;20047;-68
2023/12/31 04:06:21;;;;;;;33.15;23.55;;;;;;;6.10;67.59;94904.53;4206359;28;20075;-68
2023/12/31 04:08:24;;;;;;;34.45;24.40;;;;;;;6.20;68.03;94907.22;4202694;28;20052;-68
2023/12/31 04:10:26;;;;;;;33.70;24.33;;;;;;;6.23;67.54;94906.13;4201695;28;20546;-71
2023/12/31 04:12:28;;;;;;;30.05;21.88;;;;;;;6.36;66.70;94902.38;4206150;28;20576;-69
2023/12/31 04:14:30;;;;;;;31.13;22.58;;;;;;;6.46;66.17;94909.44;4203263;28;20173;-70
2023/12/31 04:16:32;;;;;;;29.58;22.80;;;;;;;6.51;66.29;94915.88;4197370;28;20051;-70
2023/12/31 04:18:34;;;;;;;29.17;23.17;;;;;;;6.60;66.09;94916.88;4203992;28;20080;-69
2023/12/31 04:20:36;;;;;;;29.15;22.23;;;;;;;6.66;65.85;94908.56;4203714;28;20047;-70
2023/12/31 04:22:38;;;;;;;31.67;22.33;;;;;;;6.73;65.47;94909.69;4203367;28;20414;-72
2023/12/31 04:24:40;;;;;;;28.30;21.80;;;;;;;6.79;65.22;94912.72;4197694;28;20100;-71
2023/12/31 04:26:44;;;;;;;28.10;21.35;;;;;;;6.79;64.97;94918.75;4201864;28;20051;-70
2023/12/31 04:28:46;;;;;;;29.65;21.42;;;;;;;6.85;64.96;94920.03;4204605;28;20151;-70
2023/12/31 04:30:48;;;;;;;27.02;20.35;;;;;;;6.86;64.75;94916.44;4198797;28;20049;-70
2023/12/31 04:32:50;;;;;;;30.40;21.65;;;;;;;6.88;64.88;94919.75;4204531;28;20127;-69
2023/12/31 04:34:53;;;;;;;28.77;21.80;;;;;;;6.84;64.94;94921.81;4197873;28;20063;-69
2023/12/31 04:36:55;;;;;;;30.50;21.90;;;;;;;6.84;64.96;94924.41;4203229;28;20250;-70
2023/12/31 04:38:57;;;;;;;26.95;20.38;;;;;;;6.85;64.68;94922.63;4205183;28;20059;-69
2023/12/31 04:40:59;;;;;;;29.73;21.33;;;;;;;6.87;64.61;94925.94;4197089;28;20064;-71
2023/12/31 04:43:01;;;;;;;29.13;20.63;;;;;;;6.85;64.75;94923.44;4198180;28;20471;-71
2023/12/31 04:45:09;;;;;;;29.58;22.02;;;;;;;6.83;64.15;94930.56;4197561;28;20425;-71
2023/12/31 04:47:11;;;;;;;27.75;20.80;;;;;;;6.79;64.77;94926.56;4198044;28;20094;-71
2023/12/31 04:49:14;;;;;;;32.35;23.45;;;;;;;6.67;64.93;94928.44;4195957;28;20489;-70
2023/12/31 04:51:25;;;;;;;30.33;23.67;;;;;;;6.55;65.20;94932.88;4199518;28;20300;-70
2023/12/31 04:53:27;;;;;;;31.13;23.08;;;;;;;6.42;64.93;94937.47;4204340;28;20223;-72
2023/12/31 04:55:28;;;;;;;31.15;23.10;;;;;;;6.21;65.70;94939.25;4209032;28;20097;-69
2023/12/31 04:57:30;;;;;;;29.90;21.10;;;;;;;5.92;66.71;94937.25;4200966;28;20039;-70
2023/12/31 04:59:32;;;;;;;26.85;20.05;;;;;;;5.78;67.04;94935.75;4200892;28;20122;-69
2023/12/31 05:01:34;;;;;;;27.77;18.77;;;;;;;5.69;68.05;94936.50;4207423;28;20487;-71
2023/12/31 05:03:36;;;;;;;30.83;21.52;;;;;;;5.57;68.65;94943.50;4205359;28;20493;-70
2023/12/31 05:05:38;;;;;;;28.75;21.67;;;;;;;5.56;68.97;94934.03;4198008;28;20103;-69
2023/12/31 05:07:40;;;;;;;30.70;22.50;;;;;;;5.19;69.68;94941.34;4202585;28;20290;-68
2023/12/31 05:09:42;;;;;;;30.58;22.95;;;;;;;4.82;70.80;94950.22;4207382;28;20588;-70
2023/12/31 05:11:44;;;;;;;36.28;27.05;;;;;;;4.60;71.26;94950.19;4202714;28;20614;-71
2023/12/31 05:13:46;;;;;;;37.55;26.80;;;;;;;4.74;72.02;94942.19;4196386;28;20099;-70
2023/12/31 05:15:48;;;;;;;40.35;25.70;;;;;;;4.93;71.72;94945.00;4209210;28;20929;-70
2023/12/31 05:17:50;;;;;;;38.28;26.33;;;;;;;5.19;71.25;94944.75;4208138;28;20101;-70
2023/12/31 05:19:52;;;;;;;35.50;27.33;;;;;;;5.41;69.56;94945.66;4208374;28;20051;-71
2023/12/31 05:21:55;;;;;;;41.75;29.10;;;;;;;5.59;69.23;94938.97;4199234;28;20040;-70
2023/12/31 05:23:57;;;;;;;46.65;34.17;;;;;;;5.63;68.52;94944.78;4208369;28;20060;-70
2023/12/31 05:25:59;;;;;;;44.13;33.22;;;;;;;5.63;68.04;94945.59;4193695;28;20049;-71
2023/12/31 05:28:01;;;;;;;40.17;30.60;;;;;;;5.69;68.23;94944.28;4200170;28;20048;-69
2023/12/31 05:30:03;;;;;;;39.08;28.70;;;;;;;5.74;67.79;94945.56;4207077;28;20124;-72
2023/12/31 05:32:06;;;;;;;43.55;31.58;;;;;;;5.69;68.13;94945.09;4194842;28;20045;-70
2023/12/31 05:34:09;;;;;;;45.50;33.08;;;;;;;5.69;67.83;94947.69;4195241;28;20449;-71
2023/12/31 05:36:11;;;;;;;46.25;31.63;;;;;;;5.64;67.65;94942.06;4202984;28;20429;-71
2023/12/31 05:38:13;;;;;;;46.95;33.83;;;;;;;5.56;67.13;94941.03;4197010;28;20098;-72
2023/12/31 05:40:15;;;;;;;48.22;32.25;;;;;;;5.52;68.48;94936.06;4197969;28;20110;-71
2023/12/31 05:42:18;;;;;;;49.53;31.15;;;;;;;5.57;67.66;94942.66;4204271;28;20368;-71
2023/12/31 05:44:20;;;;;;;43.08;30.58;;;;;;;5.64;67.33;94938.63;4196742;28;20111;-70
2023/12/31 05:46:22;;;;;;;40.08;29.67;;;;;;;5.72;67.39;94939.69;4203542;28;20466;-69
2023/12/31 05:48:23;;;;;;;40.50;29.63;;;;;;;5.74;67.56;94942.97;4206506;28;20062;-69
2023/12/31 05:50:25;;;;;;;39.42;29.45;;;;;;;5.74;67.42;94942.13;4199166;28;20122;-70
2023/12/31 05:52:27;;;;;;;39.70;29.17;;;;;;;5.78;67.39;94937.53;4207753;28;20131;-70
2023/12/31 05:54:29;;;;;;;41.67;30.13;;;;;;;5.79;67.21;94940.00;4207103;28;20686;-71
2023/12/31 05:56:31;;;;;;;45.38;30.08;;;;;;;5.87;66.57;94937.63;4205821;28;20470;-71
2023/12/31 05:58:33;;;;;;;59.45;37.33;;;;;;;5.90;66.27;94941.72;4204040;28;20044;-69
2023/12/31 06:00:34;;;;;;;57.10;36.03;;;;;;;5.87;66.26;94942.81;4205027;28;20063;-71
2023/12/31 06:02:37;;;;;;;58.25;37.28;;;;;;;5.80;66.03;94943.41;4205520;28;20075;-70
2023/12/31 06:04:39;;;;;;;64.20;41.50;;;;;;;5.84;66.45;94942.22;4195982;28;20079;-68
2023/12/31 06:06:41;;;;;;;75.30;46.17;;;;;;;5.83;66.62;94945.75;4194648;28;20132;-69
2023/12/31 06:08:42;;;;;;;77.97;46.25;;;;;;;5.83;66.32;94945.75;4193532;28;20056;-69
2023/12/31 06:10:44;;;;;;;80.10;46.70;;;;;;;5.81;66.30;94945.06;4192439;28;20076;-70
2023/12/31 06:12:46;;;;;;;71.60;42.63;;;;;;;5.79;66.58;94944.38;4195889;28;20044;-71
2023/12/31 06:14:48;;;;;;;72.97;44.78;;;;;;;5.86;66.57;94948.13;4207393;28;20040;-70
2023/12/31 06:16:50;;;;;;;67.78;42.70;;;;;;;5.87;66.50;94950.63;4209374;28;20048;-70
2023/12/31 06:18:52;;;;;;;67.43;39.60;;;;;;;5.90;66.65;94946.94;4196715;28;20052;-70
2023/12/31 06:20:54;;;;;;;55.65;36.28;;;;;;;5.98;66.83;94954.97;4202172;28;20059;-72
2023/12/31 06:22:56;;;;;;;47.38;35.05;;;;;;;5.87;66.05;94952.38;4201684;28;20040;-71
2023/12/31 06:24:58;;;;;;;51.97;36.67;;;;;;;5.82;66.99;94951.91;4202097;28;20461;-69
2023/12/31 06:27:00;;;;;;;55.17;36.35;;;;;;;5.83;66.96;94950.97;4196822;28;20064;-70
2023/12/31 06:29:02;;;;;;;58.72;38.90;;;;;;;5.89;66.50;94948.72;4196121;28;20403;-70
2023/12/31 06:31:04;;;;;;;56.85;37.58;;;;;;;5.93;66.85;94951.88;4196275;28;20094;-70
2023/12/31 06:33:06;;;;;;;65.38;40.47;;;;;;;6.01;65.44;94954.72;4203436;28;20199;-70
2023/12/31 06:35:08;;;;;;;59.30;41.67;;;;;;;6.09;66.13;94956.69;4205959;28;20059;-72
2023/12/31 06:37:11;;;;;;;59.78;38.60;;;;;;;6.40;65.54;94955.00;4198682;28;20052;-72
2023/12/31 06:39:13;;;;;;;63.70;39.92;;;;;;;6.94;64.04;94958.28;4201111;28;20104;-71
2023/12/31 06:41:14;;;;;;;65.05;40.28;;;;;;;7.33;62.48;94956.66;4208439;28;20458;-70
2023/12/31 06:43:16;;;;;;;55.95;37.25;;;;;;;7.80;60.80;94950.84;4193054;28;20408;-71
2023/12/31 06:45:18;;;;;;;53.58;35.40;;;;;;;8.09;60.04;94956.09;4195422;28;20160;-70
2023/12/31 06:47:20;;;;;;;51.33;35.03;;;;;;;8.05;59.80;94965.16;4205961;28;20200;-70
2023/12/31 06:49:22;;;;;;;53.92;34.10;;;;;;;7.91;59.61;94974.19;4207326;28;20051;-70
2023/12/31 06:51:24;;;;;;;47.08;35.40;;;;;;;7.66;61.01;94970.31;4207096;28;20159;-71
2023/12/31 06:53:26;;;;;;;52.20;37.22;;;;;;;7.13;61.63;94970.56;4205204;28;20049;-69
2023/12/31 06:55:28;;;;;;;50.80;37.30;;;;;;;7.09;62.46;94967.41;4194750;28;20060;-71
2023/12/31 06:57:30;;;;;;;52.95;38.50;;;;;;;7.05;62.73;94976.44;4197186;28;20051;-71
2023/12/31 06:59:32;;;;;;;52.35;39.33;;;;;;;6.93;62.60;94973.09;4195681;28;20051;-71
2023/12/31 07:01:34;;;;;;;56.15;39.88;;;;;;;6.88;62.96;94971.84;4194955;28;20578;-71
2023/12/31 07:03:36;;;;;;;52.20;37.97;;;;;;;6.85;63.27;94967.72;4192807;28;20055;-72
2023/12/31 07:05:38;;;;;;;52.05;37.08;;;;;;;6.86;62.54;94971.97;4193148;28;20060;-71
2023/12/31 07:07:41;;;;;;;49.03;36.60;;;;;;;6.87;63.32;94968.41;4202501;28;20102;-71
2023/12/31 07:09:43;;;;;;;49.72;37.20;;;;;;;6.89;63.63;94974.31;4195711;28;20087;-70
2023/12/31 07:11:49;;;;;;;49.20;35.50;;;;;;;6.83;63.57;94981.81;4207667;28;20774;-71
2023/12/31 07:13:51;;;;;;;55.63;40.83;;;;;;;6.88;63.53;94972.69;4209093;28;20043;-71
2023/12/31 07:15:58;;;;;;;49.13;34.08;;;;;;;6.85;63.64;94982.53;4196213;28;20054;-70
2023/12/31 07:18:00;;;;;;;43.42;34.35;;;;;;;6.84;63.90;94975.66;4202487;28;20486;-70
2023/12/31 07:20:04;;;;;;;48.75;35.40;;;;;;;6.91;63.71;94977.63;4183433;28;20109;-72
2023/12/31 07:22:05;;;;;;;;;;;;;;;7.03;63.70;94980.13;4207710;28;20047;-69
2023/12/31 07:24:07;;;;;;;50.58;34.17;;;;;;;7.15;63.32;94973.88;4199519;28;19992;-71
2023/12/31 07:26:10;;;;;;;47.28;35.38;;;;;;;7.29;63.20;94977.91;4202587;28;20049;-69
2023/12/31 07:28:12;;;;;;;46.22;35.45;;;;;;;7.41;62.27;94973.41;4199356;28;20082;-70
2023/12/31 07:30:14;;;;;;;51.45;35.88;;;;;;;7.47;61.90;94975.50;4206736;28;20052;-71
2023/12/31 07:32:16;;;;;;;53.03;37.22;;;;;;;7.57;61.60;94971.09;4203765;28;20134;-72
2023/12/31 07:34:18;;;;;;;51.20;35.72;;;;;;;7.67;61.75;94971.16;4204446;28;20062;-70
2023/12/31 07:36:20;;;;;;;47.88;34.97;;;;;;;7.64;61.37;94967.03;4204978;28;20131;-72
2023/12/31 07:38:22;;;;;;;46.03;34.47;;;;;;;7.63;61.70;94965.38;4201868;28;20056;-71
2023/12/31 07:40:23;;;;;;;46.42;34.33;;;;;;;7.64;61.69;94964.41;4207120;28;20054;-72
2023/12/31 07:42:25;;;;;;;48.40;34.50;;;;;;;7.67;61.50;94969.34;4197280;28;20067;-72
2023/12/31 07:44:27;;;;;;;43.75;33.90;;;;;;;7.67;61.54;94968.53;4195897;28;20044;-71
2023/12/31 07:46:29;;;;;;;46.65;35.03;;;;;;;7.75;61.80;94963.47;4204413;28;20059;-72
2023/12/31 07:48:32;;;;;;;49.53;35.45;;;;;;;7.83;61.49;94976.66;4207738;28;20052;-70
2023/12/31 07:50:35;;;;;;;45.47;33.92;;;;;;;7.85;61.61;94971.31;4207316;28;20047;-74
2023/12/31 07:52:39;;;;;;;45.72;33.45;;;;;;;7.98;60.96;94974.50;4207312;28;20200;-75
2023/12/31 07:54:42;;;;;;;44.58;32.88;;;;;;;8.07;61.25;94980.69;4205774;28;20527;-73
2023/12/31 07:56:44;;;;;;;44.22;33.03;;;;;;;8.15;60.51;94980.78;4205277;28;20040;-70
2023/12/31 07:58:45;;;;;;;45.17;33.38;;;;;;;8.19;60.39;94984.78;4200132;28;20044;-71
2023/12/31 08:00:47;;;;;;;44.25;32.88;;;;;;;8.24;60.54;94979.13;4198673;28;20087;-71
2023/12/31 08:02:49;;;;;;;48.35;33.90;;;;;;;8.27;60.08;94986.72;4203453;28;20067;-71
2023/12/31 08:04:51;;;;;;;43.20;31.90;;;;;;;8.36;60.34;94972.81;4197494;28;20044;-71
2023/12/31 08:06:53;;;;;;;48.17;34.10;;;;;;;8.36;60.16;94980.66;4201480;28;20483;-70
2023/12/31 08:08:55;;;;;;;43.20;33.00;;;;;;;8.37;60.24;94975.31;4205670;28;20366;-71
2023/12/31 08:10:59;;;;;;;45.50;33.72;;;;;;;8.47;59.77;94980.53;4205954;28;20178;-71
2023/12/31 08:13:04;;;;;;;42.15;33.25;;;;;;;8.58;59.75;94980.41;4209704;28;20462;-71
2023/12/31 08:15:09;;;;;;;45.40;34.58;;;;;;;8.63;59.93;94985.19;4209805;28;20040;-71
2023/12/31 08:17:12;;;;;;;45.10;32.72;;;;;;;8.69;59.23;94983.81;4209023;28;20048;-73
2023/12/31 08:19:14;;;;;;;44.15;31.67;;;;;;;8.74;59.20;94992.88;4209239;28;20044;-71
2023/12/31 08:21:16;;;;;;;42.67;33.13;;;;;;;8.81;59.35;94988.72;4210265;28;20059;-73
2023/12/31 08:23:19;;;;;;;44.13;32.20;;;;;;;8.88;58.59;94982.94;4209884;28;20541;-70
2023/12/31 08:25:20;;;;;;;43.78;33.53;;;;;;;8.82;57.93;94979.94;4197113;28;20056;-71
2023/12/31 08:27:22;;;;;;;43.00;31.98;;;;;;;8.82;58.94;94985.16;4205224;28;20107;-71
2023/12/31 08:29:24;;;;;;;40.75;31.83;;;;;;;8.55;59.06;94985.88;4210229;28;20108;-73
2023/12/31 08:31:26;;;;;;;51.20;31.70;;;;;;;8.23;60.05;94983.53;4211707;28;20082;-72
2023/12/31 08:33:28;;;;;;;37.83;29.00;;;;;;;8.36;60.17;94988.47;4204412;28;20052;-71
2023/12/31 08:35:30;;;;;;;41.00;29.48;;;;;;;8.53;60.54;94990.44;4210139;28;20107;-73
2023/12/31 08:37:32;;;;;;;37.97;29.05;;;;;;;8.72;59.72;94980.94;4211041;28;20048;-71
2023/12/31 08:39:37;;;;;;;36.45;27.42;;;;;;;8.88;59.42;94991.59;4207151;28;20423;-73
2023/12/31 08:41:38;;;;;;;33.65;26.25;;;;;;;9.05;59.04;94991.84;4204247;28;20121;-70
2023/12/31 08:43:40;;;;;;;31.80;25.30;;;;;;;9.08;58.07;94983.69;4197358;28;20093;-70
2023/12/31 08:45:43;;;;;;;36.80;28.05;;;;;;;9.08;58.36;94986.31;4204471;28;20921;-71
2023/12/31 08:47:45;;;;;;;35.67;28.65;;;;;;;9.10;58.48;94987.84;4206931;28;20229;-72
2023/12/31 08:49:47;;;;;;;37.95;27.08;;;;;;;9.06;58.57;94986.47;4201151;28;20052;-71
2023/12/31 08:51:49;;;;;;;36.28;26.73;;;;;;;8.83;58.18;94988.59;4205361;28;20121;-70
2023/12/31 08:53:51;;;;;;;33.30;26.35;;;;;;;8.70;59.36;94986.28;4204877;28;20080;-69
2023/12/31 08:55:53;;;;;;;33.75;26.98;;;;;;;8.65;59.47;94980.66;4203321;28;20129;-70
2023/12/31 08:57:55;;;;;;;38.20;25.55;;;;;;;8.33;59.93;94984.38;4197937;28;20041;-72
2023/12/31 08:59:57;;;;;;;34.90;26.40;;;;;;;8.16;60.91;94983.28;4196064;28;20548;-73
2023/12/31 09:01:59;;;;;;;28.10;24.38;;;;;;;8.21;60.39;94981.06;4194685;28;20080;-73
2023/12/31 09:04:01;;;;;;;28.65;22.92;;;;;;;8.57;60.89;94977.91;4207968;28;20051;-71
2023/12/31 09:06:03;;;;;;;30.73;23.15;;;;;;;8.79;59.95;94980.19;4203299;28;20474;-71
2023/12/31 09:08:05;;;;;;;29.65;22.80;;;;;;;8.99;58.53;94965.31;4196691;28;20463;-70
2023/12/31 09:10:07;;;;;;;29.85;22.95;;;;;;;9.00;58.32;94969.56;4201196;28;20055;-72
2023/12/31 09:12:09;;;;;;;26.48;20.65;;;;;;;9.16;59.17;94966.34;4196975;28;20425;-72
2023/12/31 09:14:12;;;;;;;30.88;23.67;;;;;;;9.34;58.58;94970.81;4205046;28;20126;-72
2023/12/31 09:16:16;;;;;;;30.10;22.30;;;;;;;9.56;57.93;94967.81;4203887;28;20127;-71
2023/12/31 09:18:17;;;;;;;30.25;21.92;;;;;;;9.69;57.09;94959.59;4198689;28;20102;-70
2023/12/31 09:20:20;;;;;;;27.38;21.20;;;;;;;9.87;56.99;94964.03;4209929;28;20079;-72
2023/12/31 09:22:22;;;;;;;29.27;21.70;;;;;;;9.99;56.74;94953.22;4187773;28;20164;-71
2023/12/31 09:24:24;;;;;;;28.02;22.33;;;;;;;9.69;56.11;94962.22;4206837;28;20044;-74
2023/12/31 09:26:26;;;;;;;27.80;21.65;;;;;;;9.53;57.19;94955.03;4202173;28;20087;-71
2023/12/31 09:28:28;;;;;;;29.17;21.25;;;;;;;9.30;57.47;94954.59;4204340;28;20142;-74
2023/12/31 09:30:30;;;;;;;28.23;21.30;;;;;;;9.32;58.28;94954.47;4199900;28;20052;-71